Lawson Army Air Field (Fort Benning)
KLSF : now visible

Airfield :











YOU CAN JOIN US ON...

 
LOGIN :

Register | Disclaimer

   EN    FR    IT 

 









Legend :    VFR   Marginal VFR   IFR   Intensive IFR   Very Intensive IFR
Visi :
Ceiling :
>= 8 km
>= 3000ft
5 to 8 km
1000 to 3000 ft
1500m to 5 km
500 to 1000 ft
800 to 1500m
200 to 500 ft
< 800m
< 200 ft
Symbols :   Thunderstorms  Fog  Heavy snow  Heavy precipitations  Wind > 20 kt






- Airport Elevation : 232 ft


KLSF - Lawson Army Air Field (Fort Benning)

CURRENT METAR :
  • 210224Z AUTO 31009KT 10SM OVC010 05/04 A3019 RMK AO2 RAB14E24RAB24 SLP229

EXPIRED METARs :
  • 210156Z AUTO 30009KT 10SM OVC008 05/04 A3019 RMK AO2 RAB17E26DZB26E45DZB45E46 SLP229 P0000 T00530039
  • 210145Z AUTO 30009KT 10SM OVC009 06/04 A3019 RMK AO2 RAB17E26DZB26E45DZB45 CIG 008 RWY15 SLP229
  • 210138Z AUTO 31012KT 10SM -DZ OVC009 06/05 A3019 RMK AO2 RAB17E26DZB26 CIG 008 RWY15 SLP229
  • 210117Z AUTO 33010KT 10SM -RA OVC010 06/04 A3018 RMK AO2 RAB17 SLP226
  • 210056Z AUTO 32009KT 10SM BKN010 OVC016 06/05 A3018 RMK AO2 DZB12E22DZB22E23 CIG 010V016 BKN V SCT SLP226 P0000 T00620048
  • 210047Z AUTO 32006KT 10SM BKN010 OVC016 06/05 A3017 RMK AO2 DZB12E22DZB22E23 CIG 010V016 BKN V SCT SLP222
  • 210042Z AUTO 32007KT 10SM BKN013 BKN019 OVC024 06/05 A3017 RMK AO2 DZB12E22DZB22E23 CIG 011 RWY15 SLP222
  • 210027Z AUTO 32009KT 10SM BKN015 OVC024 06/05 A3016 RMK AO2 DZB12E22DZB22E23 CIG 012 RWY15 SLP219
  • 210022Z AUTO 32010KT 10SM BKN013 OVC022 06/05 A3015 RMK AO2 DZB12E22DZB22 CIG 012 RWY15 SLP216
  • 210012Z AUTO 33009KT 10SM -DZ BKN013 OVC022 06/05 A3015 RMK AO2 DZB12 BKN V OVC SLP216
  • 210001Z AUTO 33010KT 10SM OVC010 06/05 A3014 RMK AO2 SLP212
  • 202337Z AUTO 32010KT 10SM OVC008 07/06 A3013 RMK AO2 RAE06DZB06E19DZB19E20DZB27E37DZB37 SLP209
  • 202327Z AUTO 31011KT 10SM -DZ OVC008 07/06 A3013 RMK AO2 RAE05DZB05E19DZB19E20DZB27 CIG 007 RWY15 SLP209

TAF AMD TAF KLSF
Valid from the 21 at 01:00 until the 22 at 04:00 UTC


210123Z 2101/2204 33012KT 9999 VCSH BKN010 OVC012 510103 QNH3008INS
TEMPO 2102/2109 33010G15KT BKN015
BECMG 2109/2110 32006KT 9999 NSW BKN010 OVC020 QNH3017INS
BECMG 2119/2120 36008KT 9999 BKN018 BKN025 520103 QNH3020INS TX08/2120Z TN02/2113Z LAST NO AMDS AFT 2104 NEXT 2114
KZTL FIR / North America



MET'MAP, your aeronautical weather chart ! - Copyright ORBIFLY December 2007 - Disclaimer

ORBIFLY MET'MAP TEAM :

Programming & Development : Alexandra Zaïnal
Concept & original design : Baudouin d'Aumeries
Assistance for programming : Marc-Olivier Méhu
Technical & hardware support : Manuel Goepfert

Contact : metmap@orbifly.com




SOURCES & CREDITS :

   NOAA       Earth
Advisory